Time;durP1;ratioP1;P1;durP2;ratioP2;P2;SDS_P1;SDS_P2;PMS_P1;PMS_P2;Temp;Humidity;BMP_temperature;BMP_pressure;BME280_temperature;BME280_humidity;BME280_pressure;Samples;Min_cycle;Max_cycle;Signal;HPM_P1;HPM_P2
2022/01/06 00:00:41;;;;;;;8.60;1.30;;;4.40;99.90;;;;;;4230505;28;20083;-85
2022/01/06 00:02:42;;;;;;;12.25;1.75;;;3.90;99.90;;;;;;4248626;27;20074;-85
2022/01/06 00:04:43;;;;;;;11.70;1.65;;;4.20;99.90;;;;;;4248044;27;20070;-85
2022/01/06 00:06:44;;;;;;;6.78;0.82;;;3.90;99.90;;;;;;4233332;27;20044;-85
2022/01/06 00:08:45;;;;;;;11.27;2.17;;;5.00;99.90;;;;;;4230030;28;20134;-85
2022/01/06 00:10:48;;;;;;;5.80;1.90;;;4.70;99.90;;;;;;4229955;28;20039;-85
2022/01/06 00:15:04;;;;;;;9.55;1.42;;;3.80;99.90;;;;;;4248228;27;20054;-85
2022/01/06 00:17:42;;;;;;;10.43;2.00;;;4.00;99.90;;;;;;4229777;28;20126;-85
2022/01/06 00:24:07;;;;;;;13.35;1.40;;;4.30;99.90;;;;;;4231430;28;20405;-85
2022/01/06 00:26:08;;;;;;;8.07;1.85;;;3.60;99.90;;;;;;4229134;28;20074;-85
2022/01/06 00:28:09;;;;;;;5.93;1.02;;;4.80;99.90;;;;;;4248028;27;20099;-85
2022/01/06 00:30:10;;;;;;;8.75;1.80;;;3.00;99.90;;;;;;4247927;27;20118;-85
2022/01/06 00:32:11;;;;;;;7.65;1.20;;;3.70;99.90;;;;;;4229398;28;20036;-85
2022/01/06 00:34:12;;;;;;;12.70;1.00;;;4.00;99.90;;;;;;4212838;28;20063;-85
2022/01/06 00:36:13;;;;;;;13.13;2.03;;;3.70;99.90;;;;;;4247671;28;20590;-85
2022/01/06 00:38:14;;;;;;;3.92;1.25;;;4.70;99.90;;;;;;4228162;28;20582;-86
2022/01/06 00:40:15;;;;;;;14.65;1.30;;;3.80;99.90;;;;;;4248352;27;20043;-85
2022/01/06 00:42:16;;;;;;;11.38;1.00;;;3.70;99.90;;;;;;4250989;27;20066;-85
2022/01/06 00:44:18;;;;;;;12.23;1.50;;;4.40;99.90;;;;;;4252158;27;20438;-86
2022/01/06 00:46:20;;;;;;;4.78;0.93;;;3.80;99.90;;;;;;4247161;28;20039;-85
2022/01/06 00:48:20;;;;;;;9.95;1.05;;;3.70;99.90;;;;;;4246977;28;20039;-85
2022/01/06 00:50:22;;;;;;;9.07;1.33;;;4.40;99.90;;;;;;4212430;28;20058;-85
2022/01/06 00:52:23;;;;;;;8.15;2.05;;;4.20;99.90;;;;;;4212041;28;20119;-86
2022/01/06 00:54:24;;;;;;;7.88;2.03;;;3.90;99.90;;;;;;4251174;27;20529;-86
2022/01/06 00:56:26;;;;;;;6.25;0.82;;;4.90;99.90;;;;;;4264041;27;20070;-86
2022/01/06 00:58:27;;;;;;;7.47;1.13;;;3.70;99.90;;;;;;4229999;28;20107;-86
2022/01/06 01:00:38;;;;;;;3.90;1.13;;;4.70;99.90;;;;;;4253994;27;20422;-86
2022/01/06 01:02:39;;;;;;;9.02;1.17;;;4.80;99.90;;;;;;4263046;27;20074;-86
2022/01/06 01:04:39;;;;;;;8.05;0.80;;;4.80;99.90;;;;;;4266110;27;20043;-86
2022/01/06 01:06:40;;;;;;;7.80;0.85;;;3.90;99.90;;;;;;4265904;27;20083;-86
2022/01/06 01:08:41;;;;;;;8.23;0.98;;;3.50;99.90;;;;;;4233728;28;20057;-86
2022/01/06 01:10:43;;;;;;;7.53;0.90;;;4.30;99.90;;;;;;4217155;28;20424;-86
2022/01/06 01:12:47;;;;;;;9.23;1.02;;;4.30;99.90;;;;;;4216925;28;20102;-86
2022/01/06 01:14:59;;;;;;;7.93;0.75;;;3.60;99.90;;;;;;4233806;28;20071;-86
2022/01/06 01:17:03;;;;;;;2.58;0.70;;;3.50;99.90;;;;;;4244220;27;20043;-86
2022/01/06 01:19:10;;;;;;;3.58;1.23;;;3.40;99.90;;;;;;4245764;27;20036;-86
2022/01/06 01:21:12;;;;;;;7.78;1.00;;;3.60;99.90;;;;;;4234658;28;20492;-86
2022/01/06 01:23:14;;;;;;;8.70;0.85;;;2.50;99.90;;;;;;4221995;28;20059;-86
2022/01/06 01:25:14;;;;;;;7.28;0.75;;;3.20;99.90;;;;;;4259063;27;20542;-86
2022/01/06 01:27:21;;;;;;;3.30;1.00;;;4.70;99.90;;;;;;4252539;28;20043;-85
2022/01/06 01:29:22;;;;;;;3.72;0.70;;;4.00;99.90;;;;;;4252284;28;20058;-85
2022/01/06 01:31:26;;;;;;;9.20;1.73;;;3.90;99.90;;;;;;4269760;27;20031;-86
2022/01/06 01:33:28;;;;;;;4.97;0.50;;;4.40;99.90;;;;;;4250137;27;20070;-86
2022/01/06 01:35:33;;;;;;;7.70;0.70;;;4.40;99.90;;;;;;4264855;27;20031;-86
2022/01/06 01:37:35;;;;;;;1.73;0.60;;;4.60;99.90;;;;;;4256061;27;20609;-86
2022/01/06 01:39:35;;;;;;;5.75;0.93;;;3.50;99.90;;;;;;4252990;27;20072;-86
2022/01/06 01:41:36;;;;;;;3.55;0.90;;;4.40;99.90;;;;;;4252583;27;20130;-86
2022/01/06 01:43:39;;;;;;;5.68;0.80;;;4.00;99.90;;;;;;4250340;27;20516;-86
2022/01/06 01:45:45;;;;;;;7.10;0.68;;;3.60;99.90;;;;;;4231750;28;20051;-86
2022/01/06 01:47:47;;;;;;;7.10;0.93;;;3.40;99.90;;;;;;4250252;27;20063;-86
2022/01/06 01:49:53;;;;;;;9.57;0.65;;;3.30;99.90;;;;;;4232065;28;20082;-86
2022/01/06 01:51:56;;;;;;;8.95;0.90;;;3.40;99.90;;;;;;4232659;27;20159;-86
2022/01/06 01:53:57;;;;;;;2.95;0.70;;;3.40;99.90;;;;;;4245704;27;20069;-86
2022/01/06 01:55:58;;;;;;;5.47;0.55;;;3.50;99.90;;;;;;4248115;27;20570;-86
2022/01/06 01:58:00;;;;;;;2.70;0.70;;;4.50;99.90;;;;;;4248723;27;20119;-86
2022/01/06 02:00:04;;;;;;;7.13;0.82;;;4.40;99.90;;;;;;4266315;27;20057;-86
2022/01/06 02:02:05;;;;;;;10.27;1.13;;;3.30;99.90;;;;;;4216990;28;20051;-86
2022/01/06 02:04:06;;;;;;;3.08;0.43;;;4.30;99.90;;;;;;4231873;28;20495;-86
2022/01/06 02:06:06;;;;;;;9.70;0.60;;;3.00;99.90;;;;;;4249900;27;20544;-86
2022/01/06 02:08:09;;;;;;;3.63;0.57;;;3.20;99.90;;;;;;4249870;27;20088;-86
2022/01/06 02:10:12;;;;;;;8.98;0.55;;;3.20;99.90;;;;;;4235155;27;20035;-86
2022/01/06 02:12:24;;;;;;;3.60;0.70;;;3.60;99.90;;;;;;4230851;28;20167;-86
2022/01/06 02:14:27;;;;;;;10.05;0.75;;;3.20;99.90;;;;;;4214663;28;20610;-86
2022/01/06 02:16:28;;;;;;;0.68;0.40;;;3.20;99.90;;;;;;4231219;28;20146;-86
2022/01/06 02:18:29;;;;;;;11.13;1.33;;;3.00;99.90;;;;;;4249449;27;20035;-86
2022/01/06 02:20:30;;;;;;;6.32;0.30;;;4.40;99.90;;;;;;4231567;28;20051;-86
2022/01/06 02:22:32;;;;;;;2.53;0.63;;;4.10;99.90;;;;;;4231610;28;20109;-86
2022/01/06 02:24:32;;;;;;;2.17;0.60;;;3.00;99.90;;;;;;4214656;28;20048;-86
2022/01/06 02:26:33;;;;;;;6.95;1.48;;;4.10;99.90;;;;;;4251449;27;20114;-86
2022/01/06 02:28:35;;;;;;;4.70;0.60;;;4.30;99.90;;;;;;4231980;28;20057;-86
2022/01/06 02:30:37;;;;;;;7.15;0.85;;;4.10;99.90;;;;;;4250128;27;20093;-86
2022/01/06 02:32:38;;;;;;;10.90;1.05;;;4.00;99.90;;;;;;4231339;28;20055;-86
2022/01/06 02:34:38;;;;;;;9.70;1.17;;;3.60;99.90;;;;;;4249960;27;20498;-86
2022/01/06 02:36:40;;;;;;;9.68;0.95;;;3.00;99.90;;;;;;4249197;27;20032;-86
2022/01/06 02:38:42;;;;;;;8.55;0.98;;;4.10;99.90;;;;;;4249315;27;20035;-86
2022/01/06 02:40:44;;;;;;;5.20;0.82;;;4.00;99.90;;;;;;4230691;28;20547;-86
2022/01/06 02:42:48;;;;;;;8.93;1.40;;;3.00;99.90;;;;;;4248881;27;20030;-86
2022/01/06 02:44:50;;;;;;;5.82;0.90;;;4.20;99.90;;;;;;4214266;28;20095;-87
2022/01/06 02:46:51;;;;;;;32.75;1.42;;;3.00;99.90;;;;;;4213548;28;20408;-86
2022/01/06 02:48:52;;;;;;;12.13;1.30;;;4.40;99.90;;;;;;4263086;27;20031;-86
2022/01/06 02:50:53;;;;;;;11.43;1.40;;;3.70;99.90;;;;;;4230664;28;20134;-86
2022/01/06 02:52:54;;;;;;;7.32;1.23;;;3.50;99.90;;;;;;4214147;28;20130;-86
2022/01/06 02:54:54;;;;;;;12.40;1.73;;;3.90;99.90;;;;;;4230516;28;20051;-86
2022/01/06 02:56:55;;;;;;;10.35;1.70;;;4.20;99.90;;;;;;4265946;27;20117;-86
2022/01/06 02:58:56;;;;;;;6.05;1.25;;;4.30;99.90;;;;;;4247236;27;20074;-86
2022/01/06 03:00:57;;;;;;;8.02;1.13;;;2.90;99.90;;;;;;4242580;27;20055;-85
2022/01/06 03:02:58;;;;;;;3.90;0.82;;;4.20;99.90;;;;;;4248874;27;20083;-86
2022/01/06 03:04:59;;;;;;;11.40;1.75;;;3.40;99.90;;;;;;4237098;27;20121;-86
2022/01/06 03:07:01;;;;;;;15.57;1.52;;;2.90;99.90;;;;;;4248941;27;20043;-86
2022/01/06 03:09:05;;;;;;;5.15;1.30;;;2.90;99.90;;;;;;4248764;27;20406;-86
2022/01/06 03:11:07;;;;;;;5.32;0.82;;;2.90;99.90;;;;;;4213480;28;20048;-86
2022/01/06 03:13:09;;;;;;;11.02;0.68;;;3.10;99.90;;;;;;4236297;27;20487;-86
2022/01/06 03:15:19;;;;;;;15.43;3.22;;;3.80;99.90;;;;;;4213588;28;20056;-86
2022/01/06 03:17:20;;;;;;;10.20;0.90;;;2.80;99.90;;;;;;4230173;28;20040;-86
2022/01/06 03:19:21;;;;;;;10.35;1.08;;;3.90;99.90;;;;;;4229984;28;20572;-86
2022/01/06 03:21:22;;;;;;;5.70;0.70;;;3.00;99.90;;;;;;4213008;28;20086;-86
2022/01/06 03:23:24;;;;;;;6.32;1.50;;;4.00;99.90;;;;;;4254192;27;20462;-86
2022/01/06 03:25:26;;;;;;;5.32;1.42;;;3.30;99.90;;;;;;4246921;27;20051;-86
2022/01/06 03:27:28;;;;;;;12.25;0.98;;;4.10;99.90;;;;;;4230018;28;20047;-86
2022/01/06 03:29:29;;;;;;;6.63;1.02;;;2.70;99.90;;;;;;4246859;27;20512;-86
2022/01/06 03:31:31;;;;;;;11.00;0.98;;;3.50;99.90;;;;;;4236798;27;20109;-86
2022/01/06 03:33:35;;;;;;;5.82;0.80;;;4.00;99.90;;;;;;4230671;28;20040;-86
2022/01/06 03:35:37;;;;;;;6.13;1.25;;;2.80;99.90;;;;;;4213868;28;20590;-86
2022/01/06 03:37:39;;;;;;;7.88;0.85;;;2.50;99.90;;;;;;4230287;28;20424;-86
2022/01/06 03:39:43;;;;;;;8.55;1.00;;;3.30;99.90;;;;;;4249413;27;20057;-86
2022/01/06 03:41:46;;;;;;;8.27;1.08;;;3.40;99.90;;;;;;4248102;27;20551;-86
2022/01/06 03:43:47;;;;;;;7.15;1.20;;;2.40;99.90;;;;;;4248112;27;20084;-86
2022/01/06 03:45:49;;;;;;;11.77;1.20;;;3.70;99.90;;;;;;4230365;28;20503;-85
2022/01/06 03:47:51;;;;;;;5.28;1.25;;;3.10;99.90;;;;;;4229750;28;20566;-86
2022/01/06 03:49:51;;;;;;;6.47;1.20;;;2.30;99.90;;;;;;4248029;27;20039;-86
2022/01/06 03:51:52;;;;;;;11.60;1.08;;;2.80;99.90;;;;;;4230359;28;20048;-85
2022/01/06 03:53:54;;;;;;;9.23;1.55;;;2.90;99.90;;;;;;4229509;28;20122;-86
2022/01/06 03:55:56;;;;;;;9.75;1.02;;;3.00;99.90;;;;;;4231987;27;20048;-86
2022/01/06 03:57:56;;;;;;;15.65;1.63;;;2.70;99.90;;;;;;4250850;27;20620;-86
2022/01/06 03:59:58;;;;;;;7.78;1.10;;;2.90;99.90;;;;;;4230490;28;20055;-86
2022/01/06 04:01:59;;;;;;;11.52;2.28;;;2.00;99.90;;;;;;4228584;28;20047;-86
2022/01/06 04:04:00;;;;;;;8.65;1.63;;;2.00;99.90;;;;;;4248224;27;20107;-85
2022/01/06 04:06:01;;;;;;;11.55;1.05;;;2.20;99.90;;;;;;4230592;28;20134;-86
2022/01/06 04:08:01;;;;;;;8.77;1.40;;;2.30;99.90;;;;;;4248997;27;20057;-86
2022/01/06 04:10:05;;;;;;;18.65;1.38;;;1.90;99.90;;;;;;4230523;28;20159;-85
2022/01/06 04:12:09;;;;;;;6.80;0.90;;;1.90;99.90;;;;;;4241058;27;20042;-84
2022/01/06 04:14:10;;;;;;;9.07;1.42;;;1.80;99.90;;;;;;4248449;27;20035;-84
2022/01/06 04:16:14;;;;;;;8.50;1.20;;;1.80;99.90;;;;;;4230798;27;20116;-84
2022/01/06 04:18:16;;;;;;;12.18;2.78;;;2.90;99.90;;;;;;4230589;28;20377;-84
2022/01/06 04:20:23;;;;;;;12.95;2.00;;;3.20;99.90;;;;;;4230129;28;20141;-84
2022/01/06 04:22:23;;;;;;;9.45;0.90;;;2.40;99.90;;;;;;4230300;28;20054;-84
2022/01/06 04:24:24;;;;;;;9.80;1.85;;;1.80;99.90;;;;;;4230242;28;20032;-84
2022/01/06 04:26:26;;;;;;;12.30;1.45;;;1.90;99.90;;;;;;4231223;28;20054;-85
2022/01/06 04:28:28;;;;;;;14.38;3.38;;;2.70;99.90;;;;;;4230178;28;20050;-85
2022/01/06 04:30:29;;;;;;;9.88;2.28;;;2.70;99.90;;;;;;4252083;27;20039;-85
2022/01/06 04:32:30;;;;;;;10.90;2.60;;;2.10;99.90;;;;;;4230212;28;20587;-84
2022/01/06 04:34:33;;;;;;;7.32;1.17;;;3.00;99.90;;;;;;4213735;28;20465;-85
2022/01/06 04:36:34;;;;;;;9.90;1.40;;;2.20;99.90;;;;;;4230275;28;20052;-85
2022/01/06 04:38:36;;;;;;;14.25;1.45;;;2.00;99.90;;;;;;4229950;28;20043;-84
2022/01/06 04:40:37;;;;;;;14.48;1.40;;;2.30;99.90;;;;;;4251528;27;20035;-85
2022/01/06 04:42:38;;;;;;;8.85;2.05;;;2.10;99.90;;;;;;4233941;28;20108;-85
2022/01/06 04:44:39;;;;;;;11.60;1.27;;;2.70;99.90;;;;;;4252061;27;20050;-84
2022/01/06 04:46:41;;;;;;;9.40;1.27;;;1.80;99.90;;;;;;4251849;27;20036;-84
2022/01/06 04:48:41;;;;;;;13.27;1.60;;;2.60;99.90;;;;;;4241954;27;20045;-85
2022/01/06 04:50:42;;;;;;;11.20;1.25;;;2.60;99.90;;;;;;4233168;28;20099;-85
2022/01/06 04:52:43;;;;;;;12.48;2.17;;;2.30;99.90;;;;;;4269260;27;20155;-85
2022/01/06 04:54:45;;;;;;;8.27;1.20;;;1.50;99.90;;;;;;4233340;28;20047;-85
2022/01/06 04:56:45;;;;;;;14.05;1.90;;;2.30;99.90;;;;;;4268794;27;20030;-85
2022/01/06 04:58:46;;;;;;;5.25;1.02;;;2.70;99.90;;;;;;4250191;27;20050;-85
2022/01/06 05:00:47;;;;;;;8.82;1.23;;;1.60;99.90;;;;;;4268983;27;20042;-85
2022/01/06 05:02:47;;;;;;;14.32;2.75;;;2.80;99.90;;;;;;4250373;27;20049;-85
2022/01/06 05:04:49;;;;;;;8.68;1.38;;;2.10;99.90;;;;;;4257208;27;20051;-85
2022/01/06 05:06:53;;;;;;;8.35;1.70;;;2.80;99.90;;;;;;4251865;27;20535;-85
2022/01/06 05:08:54;;;;;;;9.95;1.45;;;2.80;99.90;;;;;;4216231;28;20044;-84
2022/01/06 05:10:54;;;;;;;5.80;1.52;;;2.60;99.90;;;;;;4233208;28;20056;-85
2022/01/06 05:12:56;;;;;;;15.52;1.88;;;2.80;99.90;;;;;;4251247;27;20050;-85
2022/01/06 05:14:57;;;;;;;5.32;1.42;;;2.70;99.90;;;;;;4251687;27;20522;-85
2022/01/06 05:16:59;;;;;;;7.78;1.60;;;2.80;99.90;;;;;;4233565;28;20051;-85
2022/01/06 05:19:00;;;;;;;10.55;1.45;;;1.50;99.90;;;;;;4251326;27;20043;-85
2022/01/06 05:21:05;;;;;;;6.55;1.73;;;2.20;99.90;;;;;;4234454;28;20035;-84
2022/01/06 05:23:08;;;;;;;11.57;1.88;;;2.90;99.90;;;;;;4227099;28;20048;-84
2022/01/06 05:25:11;;;;;;;11.38;1.90;;;2.30;99.90;;;;;;4256426;27;20407;-85
2022/01/06 05:27:12;;;;;;;13.23;1.17;;;1.80;99.90;;;;;;4251724;27;20047;-85
2022/01/06 05:29:14;;;;;;;7.68;1.10;;;2.90;99.90;;;;;;4233043;28;20048;-85
2022/01/06 05:31:16;;;;;;;13.38;1.50;;;2.40;99.90;;;;;;4231884;27;20079;-86
2022/01/06 05:33:16;;;;;;;10.15;1.00;;;1.80;99.90;;;;;;4251375;27;20048;-86
2022/01/06 05:35:18;;;;;;;9.85;1.70;;;1.50;99.90;;;;;;4216417;28;20051;-85
2022/01/06 05:37:19;;;;;;;10.48;1.83;;;2.00;99.90;;;;;;4232658;28;20239;-84
2022/01/06 05:39:20;;;;;;;11.25;2.30;;;2.50;99.90;;;;;;4217687;28;20498;-85
2022/01/06 05:41:21;;;;;;;7.80;1.17;;;2.80;99.90;;;;;;4267335;27;20051;-85
2022/01/06 05:43:23;;;;;;;13.63;1.42;;;2.10;99.90;;;;;;4224028;28;20044;-84
2022/01/06 05:45:26;;;;;;;5.85;1.42;;;2.10;99.90;;;;;;4232179;28;20079;-85
2022/01/06 05:47:27;;;;;;;14.52;1.65;;;1.90;99.90;;;;;;4232747;28;20489;-85
2022/01/06 05:49:29;;;;;;;5.30;0.95;;;2.00;99.90;;;;;;4250941;27;20096;-85
2022/01/06 05:51:30;;;;;;;9.30;1.17;;;1.50;99.90;;;;;;4231581;28;20519;-85
2022/01/06 05:53:31;;;;;;;10.73;1.15;;;2.00;99.90;;;;;;4232733;28;20051;-85
2022/01/06 05:55:32;;;;;;;9.13;1.20;;;2.10;99.90;;;;;;4232564;28;20487;-85
2022/01/06 05:57:33;;;;;;;13.43;1.70;;;2.40;99.90;;;;;;4254428;27;20042;-84
2022/01/06 05:59:34;;;;;;;14.88;1.58;;;;;;;;;;4240775;27;20506;-85
2022/01/06 06:01:35;;;;;;;9.75;1.35;;;1.50;99.90;;;;;;4236853;27;20445;-85
2022/01/06 06:03:36;;;;;;;5.97;0.95;;;1.50;99.90;;;;;;4232983;28;20415;-85
2022/01/06 06:05:37;;;;;;;6.55;1.85;;;2.10;99.90;;;;;;4232948;28;20091;-85
2022/01/06 06:07:38;;;;;;;11.48;2.03;;;0.70;99.90;;;;;;4243370;27;20446;-85
2022/01/06 06:09:40;;;;;;;8.95;1.60;;;3.00;99.90;;;;;;4250871;27;20054;-85
2022/01/06 06:11:42;;;;;;;5.55;1.20;;;2.30;99.90;;;;;;4232725;28;20154;-86
2022/01/06 06:13:44;;;;;;;6.85;1.17;;;2.10;99.90;;;;;;4250435;27;20042;-85
2022/01/06 06:15:44;;;;;;;12.40;2.72;;;1.40;99.90;;;;;;4232691;28;20042;-84
2022/01/06 06:17:46;;;;;;;16.25;1.10;;;2.20;99.90;;;;;;4255044;27;20391;-84
2022/01/06 06:19:48;;;;;;;10.93;2.10;;;3.10;99.90;;;;;;4267990;27;20103;-85
2022/01/06 06:21:49;;;;;;;13.48;1.70;;;2.00;99.90;;;;;;4267458;27;20043;-85
2022/01/06 06:23:51;;;;;;;9.48;1.90;;;2.40;99.90;;;;;;4249105;27;20039;-84
2022/01/06 06:25:51;;;;;;;7.68;1.45;;;2.50;99.90;;;;;;4249174;27;20043;-85
2022/01/06 06:27:53;;;;;;;7.00;1.48;;;3.00;99.90;;;;;;4267838;27;20042;-85
2022/01/06 06:29:54;;;;;;;19.10;1.90;;;2.70;99.90;;;;;;4249287;27;20050;-85
2022/01/06 06:31:55;;;;;;;18.38;1.67;;;2.00;99.90;;;;;;4218508;28;20047;-85
2022/01/06 06:33:55;;;;;;;17.48;3.13;;;2.00;99.90;;;;;;4255780;27;20397;-85
2022/01/06 06:35:56;;;;;;;9.20;1.13;;;1.60;99.90;;;;;;4267688;27;20042;-85
2022/01/06 06:37:57;;;;;;;22.70;3.10;;;1.60;99.90;;;;;;4249311;27;20474;-85
2022/01/06 06:40:02;;;;;;;12.07;1.60;;;1.80;99.90;;;;;;4268018;27;20042;-84
2022/01/06 06:42:03;;;;;;;12.80;1.77;;;2.30;99.90;;;;;;4267656;27;20062;-84
2022/01/06 06:44:04;;;;;;;13.23;1.52;;;1.60;99.90;;;;;;4267101;27;20938;-85
2022/01/06 06:46:07;;;;;;;16.50;1.60;;;1.60;99.90;;;;;;4249149;27;20047;-86
2022/01/06 06:48:09;;;;;;;13.20;1.55;;;2.00;99.90;;;;;;4249160;27;20475;-84
2022/01/06 06:50:14;;;;;;;12.38;1.58;;;2.80;99.90;;;;;;4232973;28;20047;-84
2022/01/06 06:52:15;;;;;;;13.38;2.30;;;3.00;99.90;;;;;;4259116;27;20042;-86
2022/01/06 06:54:18;;;;;;;14.05;2.28;;;1.60;99.90;;;;;;4233965;28;20040;-83
2022/01/06 06:56:20;;;;;;;10.65;2.00;;;2.60;99.90;;;;;;4249947;27;20051;-84
2022/01/06 06:58:22;;;;;;;21.42;1.90;;;2.30;99.90;;;;;;4252101;27;20047;-85
2022/01/06 07:00:24;;;;;;;16.35;2.10;;;1.00;99.90;;;;;;4272011;27;20046;-84
2022/01/06 07:02:26;;;;;;;15.55;1.77;;;2.20;99.90;;;;;;4248766;27;20464;-87
2022/01/06 07:04:26;;;;;;;42.78;2.92;;;1.50;99.90;;;;;;4249517;27;20118;-86
2022/01/06 07:06:27;;;;;;;9.55;0.85;;;2.60;99.90;;;;;;4261442;27;20548;-84
2022/01/06 07:08:28;;;;;;;12.80;1.65;;;2.60;99.90;;;;;;4250878;27;20479;-84
2022/01/06 07:10:31;;;;;;;15.20;1.67;;;0.80;99.90;;;;;;4235421;28;20047;-84
2022/01/06 07:12:32;;;;;;;15.45;1.42;;;1.80;99.90;;;;;;4251457;27;20407;-86
2022/01/06 07:14:34;;;;;;;8.88;1.30;;;1.50;99.90;;;;;;4231695;28;20039;-86
2022/01/06 07:16:37;;;;;;;13.40;1.50;;;1.30;99.90;;;;;;4232649;28;20051;-85
2022/01/06 07:18:39;;;;;;;9.02;1.88;;;2.00;99.90;;;;;;4249846;27;20045;-85
2022/01/06 07:20:39;;;;;;;9.57;2.10;;;1.40;99.90;;;;;;4214539;28;20048;-86
2022/01/06 07:22:41;;;;;;;13.82;1.55;;;2.10;99.90;;;;;;4253562;27;20204;-85
2022/01/06 07:24:43;;;;;;;5.32;0.80;;;1.80;99.90;;;;;;4229634;28;20467;-87
2022/01/06 07:26:44;;;;;;;12.35;1.60;;;2.70;99.90;;;;;;4215713;28;20055;-85
2022/01/06 07:28:45;;;;;;;18.15;3.40;;;2.10;99.90;;;;;;4251075;27;20039;-85
2022/01/06 07:30:48;;;;;;;13.48;2.83;;;1.50;99.90;;;;;;4251472;27;20136;-85
2022/01/06 07:32:51;;;;;;;10.60;2.00;;;2.90;99.90;;;;;;4232204;28;20050;-85
2022/01/06 07:34:51;;;;;;;12.77;1.25;;;2.20;99.90;;;;;;4232992;28;20133;-86
2022/01/06 07:36:52;;;;;;;8.32;1.65;;;2.40;99.90;;;;;;4250078;27;20043;-85
2022/01/06 07:38:54;;;;;;;11.82;2.90;;;2.00;99.90;;;;;;4250169;27;20047;-85
2022/01/06 07:40:55;;;;;;;16.08;2.13;;;2.80;99.90;;;;;;4230887;28;20502;-85
2022/01/06 07:42:56;;;;;;;19.05;1.60;;;1.60;99.90;;;;;;4239112;27;20091;-85
2022/01/06 07:45:00;;;;;;;10.60;1.52;;;1.90;99.90;;;;;;4233916;28;20077;-85
2022/01/06 07:47:01;;;;;;;27.25;5.10;;;1.70;99.90;;;;;;4226132;28;20381;-85
2022/01/06 07:49:07;;;;;;;8.27;1.88;;;1.60;99.90;;;;;;4232594;28;20083;-85
2022/01/06 07:51:12;;;;;;;9.32;2.28;;;2.60;99.90;;;;;;4252017;27;20039;-85
2022/01/06 07:53:14;;;;;;;15.95;3.10;;;3.00;99.90;;;;;;4233423;28;20081;-85
2022/01/06 07:55:15;;;;;;;7.45;1.20;;;2.40;99.90;;;;;;4258707;27;20043;-85
2022/01/06 07:57:18;;;;;;;11.73;1.30;;;2.60;99.90;;;;;;4255827;27;20038;-85
2022/01/06 07:59:20;;;;;;;16.52;1.60;;;1.80;99.90;;;;;;4267154;27;20042;-85
2022/01/06 08:01:21;;;;;;;12.07;2.38;;;1.70;99.90;;;;;;4228944;28;20083;-85
2022/01/06 08:03:22;;;;;;;10.13;1.83;;;3.10;99.90;;;;;;4267949;27;20085;-85
2022/01/06 08:05:26;;;;;;;15.48;1.85;;;2.40;99.90;;;;;;4232200;28;20044;-84
2022/01/06 08:07:30;;;;;;;17.33;3.05;;;2.00;99.90;;;;;;4259047;27;20072;-77
2022/01/06 08:09:32;;;;;;;14.38;1.80;;;1.80;99.90;;;;;;4215130;28;20048;-85
2022/01/06 08:11:32;;;;;;;7.28;1.23;;;1.80;99.90;;;;;;4231752;28;20058;-84
2022/01/06 08:13:34;;;;;;;9.52;1.73;;;2.50;99.90;;;;;;4263114;27;20062;-85
2022/01/06 08:15:38;;;;;;;10.20;1.08;;;3.10;99.90;;;;;;4260319;27;20513;-85
2022/01/06 08:17:40;;;;;;;14.52;1.88;;;2.20;99.90;;;;;;4249714;27;20062;-84
2022/01/06 08:19:42;;;;;;;7.00;1.40;;;2.10;99.90;;;;;;4252213;27;20054;-87
2022/01/06 08:21:45;;;;;;;10.88;2.13;;;2.40;99.90;;;;;;4235072;27;20491;-85
2022/01/06 08:23:46;;;;;;;9.25;1.30;;;2.20;99.90;;;;;;4250164;27;20039;-86
2022/01/06 08:25:48;;;;;;;8.60;1.05;;;3.30;99.90;;;;;;4239219;27;20048;-86
2022/01/06 08:27:53;;;;;;;13.20;2.40;;;2.50;99.90;;;;;;4234452;28;20051;-86
2022/01/06 08:29:55;;;;;;;9.18;1.40;;;2.20;99.90;;;;;;4266900;27;20043;-86
2022/01/06 08:31:57;;;;;;;11.60;1.65;;;3.50;99.90;;;;;;4276562;27;20042;-86
2022/01/06 08:34:03;;;;;;;8.07;1.10;;;2.30;99.90;;;;;;4244474;28;20042;-86
2022/01/06 08:36:03;;;;;;;5.03;0.70;;;2.40;99.90;;;;;;4260876;27;20039;-87
2022/01/06 08:38:07;;;;;;;16.63;1.70;;;2.40;99.90;;;;;;4232787;28;20053;-86
2022/01/06 08:40:09;;;;;;;6.07;1.17;;;2.60;99.90;;;;;;4264732;27;20045;-87
2022/01/06 08:42:13;;;;;;;10.00;1.83;;;2.40;99.90;;;;;;4269716;27;20051;-86
2022/01/06 08:44:15;;;;;;;12.73;1.73;;;2.50;99.90;;;;;;4236944;28;20480;-86
2022/01/06 08:46:15;;;;;;;11.02;1.63;;;3.20;99.90;;;;;;4253540;27;20388;-87
2022/01/06 08:48:17;;;;;;;14.57;2.00;;;2.40;99.90;;;;;;4218230;28;20051;-87
2022/01/06 08:50:19;;;;;;;12.65;2.15;;;2.40;99.90;;;;;;4241134;28;20039;-87
2022/01/06 08:52:22;;;;;;;14.65;1.58;;;2.40;99.90;;;;;;4245861;28;20039;-87
2022/01/06 08:54:23;;;;;;;11.73;2.22;;;2.80;99.90;;;;;;4223779;28;20123;-86
2022/01/06 08:56:23;;;;;;;8.52;2.47;;;3.30;99.90;;;;;;4235178;28;20105;-86
2022/01/06 08:58:24;;;;;;;22.48;2.17;;;3.60;99.90;;;;;;4243565;28;20050;-86
2022/01/06 09:00:27;;;;;;;10.93;1.55;;;3.20;99.90;;;;;;4217998;28;20148;-87
2022/01/06 09:02:28;;;;;;;11.65;1.67;;;2.80;99.90;;;;;;4254184;27;20043;-87
2022/01/06 09:04:28;;;;;;;13.02;1.98;;;4.70;99.90;;;;;;4241842;28;20055;-87
2022/01/06 09:06:29;;;;;;;15.30;1.90;;;4.60;99.90;;;;;;4235961;28;20031;-86
2022/01/06 09:08:30;;;;;;;9.45;1.63;;;4.20;99.90;;;;;;4243155;28;20039;-87
2022/01/06 09:10:33;;;;;;;9.77;1.83;;;4.90;99.90;;;;;;4222806;28;20169;-87
2022/01/06 09:12:34;;;;;;;10.02;2.00;;;5.60;99.90;;;;;;4236247;28;20040;-87
2022/01/06 09:14:35;;;;;;;7.32;1.40;;;6.50;99.90;;;;;;4224573;28;20595;-86
2022/01/06 09:16:37;;;;;;;6.65;1.30;;;5.20;99.90;;;;;;4219655;28;20087;-86
2022/01/06 09:18:40;;;;;;;10.05;1.70;;;5.80;99.90;;;;;;4236929;28;20044;-86
2022/01/06 09:20:41;;;;;;;18.80;2.10;;;6.00;99.90;;;;;;4225464;28;20122;-87
2022/01/06 09:22:43;;;;;;;6.40;1.38;;;6.40;99.90;;;;;;4264243;27;20075;-87
2022/01/06 09:24:44;;;;;;;10.02;2.22;;;;;;;;;;4237698;28;20031;-87
2022/01/06 09:26:45;;;;;;;10.98;1.63;;;6.80;99.70;;;;;;4227109;28;20109;-86
2022/01/06 09:28:48;;;;;;;9.00;1.40;;;7.60;98.50;;;;;;4233661;28;20484;-87
2022/01/06 09:30:52;;;;;;;15.00;2.15;;;9.10;98.20;;;;;;4220830;28;20051;-86
2022/01/06 09:32:54;;;;;;;11.25;2.15;;;8.90;97.40;;;;;;4242225;27;20053;-86
2022/01/06 09:34:56;;;;;;;13.23;2.15;;;9.00;97.50;;;;;;4236436;27;20383;-85
2022/01/06 09:36:57;;;;;;;12.52;1.83;;;9.40;97.40;;;;;;4253880;27;20035;-84
2022/01/06 09:38:59;;;;;;;18.35;2.05;;;;;;;;;;4219517;28;20467;-86
2022/01/06 09:41:03;;;;;;;13.95;1.30;;;;;;;;;;4261789;27;20918;-87
2022/01/06 09:43:06;;;;;;;14.85;1.90;;;;;;;;;;4249757;27;20051;-87
2022/01/06 09:45:10;;;;;;;11.80;2.78;;;;;;;;;;4261054;27;20098;-87
2022/01/06 09:47:11;;;;;;;10.38;2.22;;;;;;;;;;4252785;27;20043;-87
2022/01/06 09:49:13;;;;;;;16.95;2.28;;;;;;;;;;4240616;27;20081;-87
2022/01/06 09:51:15;;;;;;;6.15;1.38;;;;;;;;;;4245153;27;20470;-85
2022/01/06 09:53:17;;;;;;;14.35;2.58;;;;;;;;;;4258625;27;20071;-85
2022/01/06 09:55:19;;;;;;;9.93;1.88;;;9.60;97.80;;;;;;4250548;27;20047;-85
2022/01/06 09:57:21;;;;;;;17.98;1.55;;;8.50;98.00;;;;;;4262628;27;20039;-85
2022/01/06 09:59:23;;;;;;;17.67;2.55;;;8.60;98.60;;;;;;4265567;27;20054;-86
2022/01/06 10:01:24;;;;;;;10.90;2.15;;;8.20;99.10;;;;;;4236236;27;20051;-86
2022/01/06 10:03:35;;;;;;;13.43;2.28;;;;;;;;;;4232821;27;20178;-86
2022/01/06 10:05:49;;;;;;;8.30;1.23;;;8.10;99.10;;;;;;4231726;28;20107;-91
2022/01/06 10:07:50;;;;;;;10.65;2.35;;;7.80;99.90;;;;;;4253442;27;20095;-86
2022/01/06 10:09:51;;;;;;;12.27;1.23;;;8.10;99.90;;;;;;4254435;27;20039;-87
2022/01/06 10:11:57;;;;;;;12.27;1.42;;;7.70;99.90;;;;;;4264655;27;20092;-87
2022/01/06 10:14:09;;;;;;;12.40;2.85;;;7.80;99.90;;;;;;4250489;27;20051;-86
2022/01/06 10:16:19;;;;;;;5.43;1.48;;;7.00;99.90;;;;;;4250530;27;20136;-86
2022/01/06 10:18:20;;;;;;;7.90;1.15;;;7.80;99.90;;;;;;4250275;27;20039;-85
2022/01/06 10:20:26;;;;;;;11.07;1.15;;;7.90;99.90;;;;;;4232177;28;20043;-85
2022/01/06 10:22:27;;;;;;;13.00;2.70;;;8.40;99.90;;;;;;4249684;27;20079;-87
2022/01/06 10:24:29;;;;;;;10.13;2.17;;;7.80;99.90;;;;;;4232027;28;20411;-86
2022/01/06 10:26:30;;;;;;;16.88;1.70;;;8.20;99.90;;;;;;4253455;27;20074;-88
2022/01/06 10:28:36;;;;;;;9.88;2.65;;;;;;;;;;4220054;28;20077;-88
2022/01/06 10:30:38;;;;;;;14.50;2.65;;;;;;;;;;4263767;27;20053;-87
2022/01/06 10:32:39;;;;;;;11.57;1.45;;;7.80;99.90;;;;;;4235500;27;20088;-88
2022/01/06 10:34:43;;;;;;;20.00;2.00;;;;;;;;;;4214817;28;20094;-87
2022/01/06 10:36:48;;;;;;;9.77;1.52;;;;;;;;;;4234465;27;20105;-88
2022/01/06 10:38:53;;;;;;;14.00;1.58;;;;;;;;;;4230674;28;20043;-87
2022/01/06 10:40:54;;;;;;;12.68;2.85;;;;;;;;;;4247374;27;20415;-87
2022/01/06 10:42:57;;;;;;;12.88;1.48;;;;;;;;;;4249720;27;20122;-87
2022/01/06 10:45:04;;;;;;;9.60;1.23;;;;;;;;;;4250332;27;20118;-88
2022/01/06 10:47:05;;;;;;;13.13;1.85;;;;;;;;;;4250234;27;20110;-87
2022/01/06 10:49:08;;;;;;;8.73;1.52;;;;;;;;;;4252593;27;20116;-87
2022/01/06 10:51:11;;;;;;;12.43;1.67;;;;;;;;;;4233404;28;20039;-87